createdAt,value
2018-03-08T00:00:20.601Z,93.98
2018-03-08T00:02:23.049Z,93.80
2018-03-08T00:04:25.558Z,93.62
2018-03-08T00:06:28.129Z,93.70
2018-03-08T00:08:30.673Z,93.76
2018-03-08T00:10:33.168Z,93.79
2018-03-08T00:12:35.658Z,93.50
2018-03-08T00:14:38.152Z,93.64
2018-03-08T00:16:40.638Z,93.69
2018-03-08T00:18:43.143Z,93.64
2018-03-08T00:20:45.668Z,93.66
2018-03-08T00:22:48.146Z,93.77
2018-03-08T00:24:50.634Z,93.54
2018-03-08T00:26:53.140Z,93.45
2018-03-08T00:28:55.589Z,93.32
2018-03-08T00:30:58.063Z,93.29
2018-03-08T00:33:00.688Z,93.56
2018-03-08T00:35:03.129Z,93.63
2018-03-08T00:37:05.650Z,93.59
2018-03-08T00:39:08.169Z,93.71
2018-03-08T00:41:10.661Z,93.73
2018-03-08T00:43:13.153Z,93.84
2018-03-08T00:45:15.605Z,94.02
2018-03-08T00:47:18.103Z,93.91
2018-03-08T00:49:20.638Z,93.85
2018-03-08T00:51:23.154Z,93.94
2018-03-08T00:53:25.618Z,93.66
2018-03-08T00:55:28.118Z,93.85
2018-03-08T00:57:30.575Z,94.11
2018-03-08T00:59:33.019Z,94.27
2018-03-08T01:01:35.519Z,94.23
2018-03-08T01:03:38.023Z,94.08
2018-03-08T01:05:40.449Z,94.05
2018-03-08T01:07:42.956Z,94.15
2018-03-08T01:09:45.459Z,94.12
2018-03-08T01:11:47.934Z,94.24
2018-03-08T01:13:50.551Z,94.61
2018-03-08T01:15:53.026Z,94.65
2018-03-08T01:17:55.535Z,94.74
2018-03-08T01:19:58.027Z,94.86
2018-03-08T01:22:00.459Z,95.13
2018-03-08T01:24:03.018Z,94.82
2018-03-08T01:26:05.611Z,94.98
2018-03-08T01:28:08.100Z,95.98
2018-03-08T01:30:10.520Z,96.42
2018-03-08T01:32:12.998Z,96.82
2018-03-08T01:34:15.431Z,96.96
2018-03-08T01:36:27.631Z,96.91
2018-03-08T01:38:30.184Z,97.16
2018-03-08T01:40:32.684Z,97.16
2018-03-08T01:42:35.248Z,97.34
2018-03-08T01:44:37.696Z,97.80
2018-03-08T01:46:40.161Z,97.70
2018-03-08T01:48:42.755Z,97.88
2018-03-08T01:50:45.225Z,97.81
2018-03-08T01:52:47.689Z,97.96
2018-03-08T01:54:50.149Z,97.94
2018-03-08T01:56:52.640Z,98.14
2018-03-08T01:58:55.121Z,98.21
2018-03-08T02:00:59.286Z,98.23
2018-03-08T02:03:01.765Z,98.19
2018-03-08T02:05:04.203Z,98.02
2018-03-08T02:07:06.834Z,98.33
2018-03-08T02:09:09.270Z,98.33
2018-03-08T02:11:11.714Z,98.23
2018-03-08T02:13:14.196Z,98.14
2018-03-08T02:15:16.704Z,97.96
2018-03-08T02:17:19.405Z,98.03
2018-03-08T02:19:23.529Z,98.13
2018-03-08T02:21:26.921Z,97.71
2018-03-08T02:23:29.419Z,97.58
2018-03-08T02:25:31.861Z,97.03
2018-03-08T02:27:34.324Z,96.44
2018-03-08T02:29:36.768Z,96.54
2018-03-08T02:31:39.244Z,96.49
2018-03-08T02:33:41.710Z,95.73
2018-03-08T02:35:44.190Z,95.28
2018-03-08T02:37:46.791Z,95.05
2018-03-08T02:39:49.229Z,94.48
2018-03-08T02:41:51.771Z,94.63
2018-03-08T02:43:54.270Z,94.41
2018-03-08T02:45:56.737Z,94.75
2018-03-08T02:47:59.192Z,95.11
2018-03-08T02:50:01.752Z,95.46
2018-03-08T02:52:04.250Z,95.72
2018-03-08T02:54:06.722Z,95.95
2018-03-08T02:56:09.182Z,96.37
2018-03-08T02:58:11.696Z,96.39
2018-03-08T03:00:14.171Z,96.55
2018-03-08T03:02:16.606Z,96.49
2018-03-08T03:04:19.095Z,95.98
2018-03-08T03:06:21.607Z,94.32
2018-03-08T03:08:24.100Z,94.84
2018-03-08T03:10:26.676Z,94.52
2018-03-08T03:12:29.146Z,94.67
2018-03-08T03:14:31.665Z,95.13
2018-03-08T03:16:34.160Z,95.28
2018-03-08T03:18:36.645Z,95.39
2018-03-08T03:20:39.102Z,95.78
2018-03-08T03:22:41.631Z,95.30
2018-03-08T03:24:44.157Z,95.32
2018-03-08T03:26:46.727Z,94.81
2018-03-08T03:28:49.202Z,94.59
2018-03-08T03:30:51.675Z,95.00
2018-03-08T03:32:54.205Z,95.13
2018-03-08T03:34:56.694Z,95.17
2018-03-08T03:36:59.190Z,95.39
2018-03-08T03:39:01.626Z,95.75
2018-03-08T03:41:04.052Z,95.84
2018-03-08T03:43:06.502Z,95.94
2018-03-08T03:45:09.033Z,96.27
2018-03-08T03:47:11.490Z,96.43
2018-03-08T03:49:13.927Z,96.22
2018-03-08T03:51:16.427Z,96.55
2018-03-08T03:53:18.881Z,96.94
2018-03-08T03:55:21.328Z,97.05
2018-03-08T03:57:23.813Z,97.09
2018-03-08T03:59:26.243Z,97.08
2018-03-08T04:01:28.802Z,97.10
2018-03-08T04:03:31.293Z,97.26
2018-03-08T04:05:33.786Z,97.32
2018-03-08T04:07:36.257Z,97.23
2018-03-08T04:09:38.775Z,97.13
2018-03-08T04:11:41.316Z,97.20
2018-03-08T04:13:43.865Z,97.13
2018-03-08T04:15:46.352Z,97.09
2018-03-08T04:17:48.862Z,97.15
2018-03-08T04:19:51.346Z,97.13
2018-03-08T04:21:53.807Z,97.17
2018-03-08T04:23:56.232Z,97.16
2018-03-08T04:25:58.838Z,97.18
2018-03-08T04:28:01.273Z,97.01
2018-03-08T04:30:03.811Z,96.86
2018-03-08T04:32:06.303Z,96.87
2018-03-08T04:34:08.762Z,96.80
2018-03-08T04:36:11.304Z,96.64
2018-03-08T04:38:13.730Z,96.47
2018-03-08T04:40:16.276Z,96.37
2018-03-08T04:42:18.762Z,96.26
2018-03-08T04:44:21.234Z,96.26
2018-03-08T04:46:23.692Z,96.14
2018-03-08T04:48:26.242Z,96.07
2018-03-08T04:50:29.436Z,96.33
2018-03-08T04:52:31.851Z,96.17
2018-03-08T04:54:34.271Z,96.30
2018-03-08T04:56:36.833Z,96.38
2018-03-08T04:58:39.323Z,96.33
2018-03-08T05:00:41.818Z,96.14
2018-03-08T05:02:44.307Z,96.06
2018-03-08T05:04:46.765Z,96.16
2018-03-08T05:06:49.305Z,96.17
2018-03-08T05:08:51.772Z,96.22
2018-03-08T05:10:54.284Z,96.14
2018-03-08T05:12:56.718Z,96.09
2018-03-08T05:14:59.201Z,96.12
2018-03-08T05:17:02.413Z,96.16
2018-03-08T05:19:04.868Z,96.16
2018-03-08T05:21:07.368Z,96.29
2018-03-08T05:23:09.930Z,96.16
2018-03-08T05:25:12.451Z,96.05
2018-03-08T05:27:14.917Z,96.19
2018-03-08T05:29:17.477Z,96.21
2018-03-08T05:31:19.907Z,96.03
2018-03-08T05:33:22.423Z,96.02
2018-03-08T05:35:24.913Z,96.03
2018-03-08T05:37:27.407Z,95.84
2018-03-08T05:39:29.957Z,96.01
2018-03-08T05:41:32.404Z,95.90
2018-03-08T05:43:34.974Z,95.68
2018-03-08T05:45:37.441Z,95.90
2018-03-08T05:47:39.982Z,95.95
2018-03-08T05:49:42.513Z,95.97
2018-03-08T05:51:45.019Z,95.91
2018-03-08T05:53:47.516Z,95.59
2018-03-08T05:55:49.950Z,95.48
2018-03-08T05:57:52.451Z,95.53
2018-03-08T05:59:54.941Z,95.33
2018-03-08T06:01:57.431Z,95.21
2018-03-08T06:03:59.924Z,95.14
2018-03-08T06:06:02.482Z,94.65
2018-03-08T06:08:05.018Z,94.72
2018-03-08T06:10:07.430Z,94.62
2018-03-08T06:12:09.882Z,94.69
2018-03-08T06:14:12.497Z,94.72
2018-03-08T06:16:14.984Z,94.41
2018-03-08T06:18:17.581Z,94.27
2018-03-08T06:20:20.109Z,94.09
2018-03-08T06:22:22.682Z,94.00
2018-03-08T06:24:25.166Z,94.08
2018-03-08T06:26:27.633Z,94.17
2018-03-08T06:28:30.157Z,93.99
2018-03-08T06:30:32.669Z,93.93
2018-03-08T06:32:35.177Z,93.33
2018-03-08T06:34:37.730Z,92.69
2018-03-08T06:36:40.244Z,92.78
2018-03-08T06:38:42.717Z,92.34
2018-03-08T06:40:45.167Z,92.35
2018-03-08T06:42:47.684Z,92.30
2018-03-08T06:44:50.124Z,92.24
2018-03-08T06:46:52.623Z,92.49
2018-03-08T06:48:55.057Z,92.37
2018-03-08T06:50:57.675Z,92.55
2018-03-08T06:53:00.125Z,92.59
2018-03-08T06:55:02.609Z,92.46
2018-03-08T06:57:05.077Z,92.36
2018-03-08T06:59:07.558Z,92.35
2018-03-08T07:01:10.000Z,92.53
2018-03-08T07:03:12.500Z,92.74
2018-03-08T07:05:14.989Z,92.46
2018-03-08T07:07:17.512Z,92.20
2018-03-08T07:09:19.969Z,91.17
2018-03-08T07:11:22.503Z,91.49
2018-03-08T07:13:24.989Z,91.16
2018-03-08T07:15:27.429Z,90.63
2018-03-08T07:17:29.988Z,90.53
2018-03-08T07:19:32.443Z,90.41
2018-03-08T07:21:35.175Z,89.62
2018-03-08T07:23:37.589Z,89.41
2018-03-08T07:25:40.070Z,89.82
2018-03-08T07:27:42.644Z,89.79
2018-03-08T07:29:45.083Z,89.25
2018-03-08T07:31:47.639Z,89.32
2018-03-08T07:33:50.130Z,88.12
2018-03-08T07:35:52.547Z,88.56
2018-03-08T07:37:55.050Z,89.32
2018-03-08T07:39:57.560Z,89.32
2018-03-08T07:41:59.978Z,89.70
2018-03-08T07:44:02.460Z,89.75
2018-03-08T07:46:05.909Z,89.53
2018-03-08T07:48:08.356Z,89.96
2018-03-08T07:50:10.850Z,89.14
2018-03-08T07:52:13.265Z,89.75
2018-03-08T07:54:15.775Z,89.63
2018-03-08T07:56:18.271Z,89.05
2018-03-08T07:58:20.775Z,89.02
2018-03-08T08:00:23.312Z,87.64
2018-03-08T08:02:25.973Z,87.69
2018-03-08T08:04:40.529Z,87.00
2018-03-08T08:06:54.996Z,86.70
2018-03-08T08:09:06.364Z,87.03
2018-03-08T08:11:08.841Z,86.33
2018-03-08T08:13:11.374Z,86.12
2018-03-08T08:15:13.875Z,86.26
2018-03-08T08:17:16.465Z,85.64
2018-03-08T08:19:18.959Z,85.30
2018-03-08T08:21:21.449Z,84.97
2018-03-08T08:23:23.999Z,84.43
2018-03-08T08:25:26.540Z,84.27
2018-03-08T08:27:29.054Z,83.98
2018-03-08T08:29:31.728Z,84.14
2018-03-08T08:31:34.227Z,84.24
2018-03-08T08:33:36.679Z,84.42
2018-03-08T08:35:39.131Z,83.29
2018-03-08T08:37:41.691Z,83.91
2018-03-08T08:39:44.197Z,83.91
2018-03-08T08:41:46.698Z,83.79
2018-03-08T08:43:49.176Z,83.40
2018-03-08T08:45:51.621Z,83.04
2018-03-08T08:47:54.165Z,82.47
2018-03-08T08:49:56.766Z,83.00
2018-03-08T08:51:59.201Z,83.00
2018-03-08T08:54:01.749Z,83.06
2018-03-08T08:56:04.344Z,83.47
2018-03-08T08:58:06.841Z,82.65
2018-03-08T09:00:09.285Z,81.36
2018-03-08T09:02:11.924Z,80.72
2018-03-08T09:04:14.361Z,81.06
2018-03-08T09:06:16.884Z,81.09
2018-03-08T09:08:19.344Z,79.83
2018-03-08T09:10:21.857Z,80.56
2018-03-08T09:12:24.492Z,80.57
2018-03-08T09:14:26.981Z,79.79
2018-03-08T09:16:29.586Z,80.75
2018-03-08T09:18:32.100Z,80.76
2018-03-08T09:20:34.572Z,81.04
2018-03-08T09:22:37.171Z,79.85
2018-03-08T09:24:39.666Z,79.82
2018-03-08T09:26:42.150Z,80.51
2018-03-08T09:28:44.666Z,80.81
2018-03-08T09:30:47.221Z,80.54
2018-03-08T09:32:49.734Z,79.21
2018-03-08T09:34:52.322Z,79.21
2018-03-08T09:36:54.795Z,78.80
2018-03-08T09:38:57.311Z,79.27
2018-03-08T09:40:59.746Z,78.87
2018-03-08T09:43:02.297Z,79.15
2018-03-08T09:45:04.765Z,78.62
2018-03-08T09:47:07.282Z,78.36
2018-03-08T09:49:09.894Z,76.27
2018-03-08T09:51:12.375Z,75.74
2018-03-08T09:53:14.861Z,77.15
2018-03-08T09:55:17.360Z,76.66
2018-03-08T09:57:19.801Z,75.90
2018-03-08T09:59:22.320Z,75.84
2018-03-08T10:01:25.545Z,75.64
2018-03-08T10:03:28.050Z,76.19
2018-03-08T10:05:30.582Z,75.91
2018-03-08T10:07:33.140Z,75.63
2018-03-08T10:09:35.631Z,74.99
2018-03-08T10:11:38.126Z,74.70
2018-03-08T10:13:40.621Z,75.16
2018-03-08T10:15:43.124Z,74.69
2018-03-08T10:17:45.702Z,75.77
2018-03-08T10:19:48.197Z,74.71
2018-03-08T10:21:50.696Z,74.53
2018-03-08T10:23:53.154Z,73.99
2018-03-08T10:25:55.642Z,74.57
2018-03-08T10:27:58.122Z,72.63
2018-03-08T10:30:00.666Z,72.10
2018-03-08T10:32:03.133Z,72.11
2018-03-08T10:34:05.622Z,72.32
2018-03-08T10:36:08.099Z,72.19
2018-03-08T10:38:10.636Z,72.42
2018-03-08T10:40:13.063Z,71.26
2018-03-08T10:42:15.502Z,70.93
2018-03-08T10:44:18.094Z,71.20
2018-03-08T10:46:20.573Z,71.73
2018-03-08T10:48:23.026Z,71.51
2018-03-08T10:50:25.530Z,71.59
2018-03-08T10:52:28.005Z,71.29
2018-03-08T10:54:30.455Z,69.17
2018-03-08T10:56:32.966Z,69.32
2018-03-08T10:58:35.481Z,68.33
2018-03-08T11:00:43.447Z,69.22
2018-03-08T11:02:49.725Z,69.15
2018-03-08T11:04:57.784Z,69.71
2018-03-08T11:07:00.377Z,70.28
2018-03-08T11:09:02.894Z,70.03
2018-03-08T11:11:05.313Z,70.52
2018-03-08T11:13:07.737Z,70.04
2018-03-08T11:15:10.249Z,69.49
2018-03-08T11:17:12.718Z,70.16
2018-03-08T11:19:15.183Z,69.71
2018-03-08T11:21:17.730Z,68.30
2018-03-08T11:23:20.216Z,68.61
2018-03-08T11:25:22.671Z,67.95
2018-03-08T11:27:25.112Z,68.17
2018-03-08T11:29:27.591Z,68.38
2018-03-08T11:31:30.087Z,68.30
2018-03-08T11:33:32.571Z,68.05
2018-03-08T11:35:35.073Z,68.09
2018-03-08T11:37:37.567Z,67.44
2018-03-08T11:39:40.056Z,67.58
2018-03-08T11:41:42.659Z,67.90
2018-03-08T11:43:45.086Z,67.92
2018-03-08T11:45:47.589Z,66.02
2018-03-08T11:47:50.016Z,66.71
2018-03-08T11:49:52.533Z,66.49
2018-03-08T11:51:55.048Z,67.49
2018-03-08T11:53:57.553Z,67.27
2018-03-08T11:56:00.003Z,66.94
2018-03-08T11:58:02.498Z,66.24
2018-03-08T12:00:05.003Z,66.07
2018-03-08T12:02:07.585Z,65.79
2018-03-08T12:04:10.051Z,65.14
2018-03-08T12:06:12.547Z,64.44
2018-03-08T12:08:15.069Z,64.59
2018-03-08T12:10:17.663Z,64.46
2018-03-08T12:12:20.168Z,64.72
2018-03-08T12:14:22.596Z,63.95
2018-03-08T12:16:25.113Z,66.28
2018-03-08T12:18:27.533Z,66.44
2018-03-08T12:20:30.044Z,66.92
2018-03-08T12:22:32.517Z,65.84
2018-03-08T12:24:34.971Z,66.10
2018-03-08T12:26:37.481Z,64.90
2018-03-08T12:28:39.998Z,65.59
2018-03-08T12:30:42.593Z,65.56
2018-03-08T12:32:45.158Z,66.36
2018-03-08T12:34:47.682Z,65.74
2018-03-08T12:36:50.151Z,66.21
2018-03-08T12:38:52.675Z,66.93
2018-03-08T12:40:55.191Z,65.10
2018-03-08T12:42:57.662Z,66.56
2018-03-08T12:45:00.084Z,65.74
2018-03-08T12:47:02.647Z,66.61
2018-03-08T12:49:05.092Z,65.71
2018-03-08T12:51:07.627Z,65.05
2018-03-08T12:53:10.119Z,64.53
2018-03-08T12:55:12.613Z,64.98
2018-03-08T12:57:15.110Z,65.92
2018-03-08T12:59:17.598Z,65.51
2018-03-08T13:01:20.093Z,65.18
2018-03-08T13:03:22.589Z,64.44
2018-03-08T13:05:25.083Z,66.24
2018-03-08T13:07:27.674Z,66.59
2018-03-08T13:09:30.174Z,65.66
2018-03-08T13:11:32.674Z,66.06
2018-03-08T13:13:35.154Z,65.77
2018-03-08T13:15:37.594Z,66.46
2018-03-08T13:17:40.143Z,65.88
2018-03-08T13:19:42.593Z,65.52
2018-03-08T13:21:45.229Z,65.15
2018-03-08T13:23:47.795Z,65.52
2018-03-08T13:25:50.236Z,65.46
2018-03-08T13:27:52.710Z,65.53
2018-03-08T13:29:55.177Z,65.39
2018-03-08T13:31:57.672Z,65.43
2018-03-08T13:34:00.289Z,64.47
2018-03-08T13:36:02.794Z,63.50
2018-03-08T13:38:05.243Z,64.37
2018-03-08T13:40:07.879Z,62.70
2018-03-08T13:42:10.328Z,62.53
2018-03-08T13:44:12.786Z,63.68
2018-03-08T13:46:15.345Z,64.25
2018-03-08T13:48:17.767Z,63.37
2018-03-08T13:50:20.290Z,64.09
2018-03-08T13:52:22.779Z,63.85
2018-03-08T13:54:25.233Z,63.31
2018-03-08T13:56:27.771Z,63.91
2018-03-08T13:58:30.224Z,65.11
2018-03-08T14:00:32.707Z,64.76
2018-03-08T14:02:35.190Z,65.93
2018-03-08T14:04:37.793Z,65.80
2018-03-08T14:06:40.227Z,65.40
2018-03-08T14:08:42.718Z,65.68
2018-03-08T14:10:45.187Z,65.23
2018-03-08T14:12:47.719Z,65.37
2018-03-08T14:14:50.158Z,65.50
2018-03-08T14:16:52.604Z,65.94
2018-03-08T14:18:55.242Z,65.43
2018-03-08T14:20:57.740Z,64.95
2018-03-08T14:23:00.250Z,65.97
2018-03-08T14:25:02.805Z,67.04
2018-03-08T14:27:05.320Z,66.17
2018-03-08T14:29:07.785Z,66.47
2018-03-08T14:31:10.339Z,66.24
2018-03-08T14:33:12.797Z,66.21
2018-03-08T14:35:15.281Z,66.56
2018-03-08T14:37:17.760Z,67.43
2018-03-08T14:39:20.276Z,68.74
2018-03-08T14:41:22.751Z,67.91
2018-03-08T14:43:25.261Z,68.56
2018-03-08T14:45:27.751Z,69.62
2018-03-08T14:47:30.249Z,69.95
2018-03-08T14:49:32.844Z,71.08
2018-03-08T14:51:35.439Z,71.87
2018-03-08T14:53:37.874Z,71.40
2018-03-08T14:55:40.361Z,73.12
2018-03-08T14:57:42.954Z,74.47
2018-03-08T14:59:45.400Z,74.15
2018-03-08T15:01:48.004Z,76.02
2018-03-08T15:03:50.516Z,75.96
2018-03-08T15:05:53.013Z,77.36
2018-03-08T15:07:55.587Z,77.69
2018-03-08T15:09:58.185Z,77.87
2018-03-08T15:12:00.641Z,78.69
2018-03-08T15:14:03.134Z,79.57
2018-03-08T15:16:05.608Z,79.45
2018-03-08T15:18:08.060Z,80.54
2018-03-08T15:20:10.650Z,78.83
2018-03-08T15:22:13.080Z,78.89
2018-03-08T15:24:15.549Z,80.14
2018-03-08T15:26:18.047Z,79.85
2018-03-08T15:28:20.624Z,81.54
2018-03-08T15:30:23.186Z,81.62
2018-03-08T15:32:25.636Z,83.31
2018-03-08T15:34:28.205Z,83.56
2018-03-08T15:36:30.650Z,82.95
2018-03-08T15:38:33.158Z,82.68
2018-03-08T15:40:35.706Z,82.85
2018-03-08T15:42:38.179Z,82.83
2018-03-08T15:44:40.669Z,83.09
2018-03-08T15:46:43.202Z,83.58
2018-03-08T15:48:45.754Z,84.38
2018-03-08T15:50:48.356Z,85.04
2018-03-08T15:52:50.846Z,84.98
2018-03-08T15:54:53.545Z,86.68
2018-03-08T15:56:56.046Z,86.29
2018-03-08T15:58:58.526Z,85.94
2018-03-08T16:01:01.049Z,86.88
2018-03-08T16:03:03.550Z,87.78
2018-03-08T16:05:06.008Z,87.64
2018-03-08T16:10:21.415Z,88.54
2018-03-08T16:12:23.999Z,90.04
2018-03-08T16:14:26.589Z,90.54
2018-03-08T16:16:29.085Z,88.61
2018-03-08T16:18:31.569Z,88.46
2018-03-08T16:20:34.075Z,90.37
2018-03-08T16:22:36.565Z,90.15
2018-03-08T16:24:39.159Z,90.63
2018-03-08T16:26:41.751Z,91.09
2018-03-08T16:28:44.236Z,90.92
2018-03-08T16:30:46.742Z,91.23
2018-03-08T16:32:49.274Z,92.18
2018-03-08T16:34:51.752Z,92.43
2018-03-08T16:36:54.426Z,93.04
2018-03-08T16:38:57.020Z,92.63
2018-03-08T16:40:59.520Z,92.79
2018-03-08T16:43:02.110Z,93.42
2018-03-08T16:45:04.581Z,93.31
2018-03-08T16:47:07.198Z,93.17
2018-03-08T16:49:09.705Z,93.05
2018-03-08T16:51:12.285Z,93.11
2018-03-08T16:53:14.762Z,92.78
2018-03-08T16:55:17.378Z,92.27
2018-03-08T16:57:19.970Z,92.24
2018-03-08T16:59:22.446Z,92.40
2018-03-08T17:01:24.955Z,92.50
2018-03-08T17:03:27.440Z,92.21
2018-03-08T17:05:29.946Z,92.57
2018-03-08T17:07:32.463Z,92.43
2018-03-08T17:09:34.901Z,93.12
2018-03-08T17:11:37.430Z,93.02
2018-03-08T17:13:39.891Z,92.93
2018-03-08T17:15:42.437Z,93.16
2018-03-08T17:17:45.002Z,93.58
2018-03-08T17:19:47.511Z,94.07
2018-03-08T17:21:49.963Z,94.00
2018-03-08T17:23:52.477Z,94.30
2018-03-08T17:25:55.017Z,95.10
2018-03-08T17:27:57.573Z,94.81
2018-03-08T17:30:00.122Z,94.83
2018-03-08T17:32:02.641Z,94.70
2018-03-08T17:34:05.222Z,94.75
2018-03-08T17:36:07.705Z,94.88
2018-03-08T17:38:10.166Z,94.91
2018-03-08T17:40:12.653Z,95.11
2018-03-08T17:42:15.186Z,95.22
2018-03-08T17:44:17.722Z,94.99
2018-03-08T17:46:20.187Z,95.14
2018-03-08T17:48:22.722Z,95.18
2018-03-08T17:50:25.200Z,95.25
2018-03-08T17:52:27.670Z,95.12
2018-03-08T17:54:30.335Z,95.01
2018-03-08T17:56:32.682Z,95.01
2018-03-08T17:58:35.272Z,95.72
2018-03-08T18:00:37.750Z,93.57
2018-03-08T18:02:40.302Z,92.38
2018-03-08T18:04:42.862Z,92.05
2018-03-08T18:06:45.306Z,92.32
2018-03-08T18:08:47.851Z,92.01
2018-03-08T18:10:50.442Z,92.75
2018-03-08T18:12:53.016Z,92.88
2018-03-08T18:14:55.510Z,92.37
2018-03-08T18:16:58.016Z,91.60
2018-03-08T18:19:00.512Z,92.48
2018-03-08T18:21:02.971Z,92.94
2018-03-08T18:23:05.599Z,93.75
2018-03-08T18:25:08.196Z,93.37
2018-03-08T18:27:10.996Z,93.30
2018-03-08T18:29:13.433Z,91.73
2018-03-08T18:31:16.019Z,91.25
2018-03-08T18:33:18.537Z,91.43
2018-03-08T18:35:21.172Z,91.47
2018-03-08T18:37:23.633Z,91.12
2018-03-08T18:39:26.257Z,91.07
2018-03-08T18:41:28.786Z,91.43
2018-03-08T18:43:31.316Z,91.13
2018-03-08T18:45:33.826Z,90.98
2018-03-08T18:47:36.322Z,91.05
2018-03-08T18:49:38.812Z,91.22
2018-03-08T18:51:41.323Z,91.05
2018-03-08T18:53:43.813Z,91.02
2018-03-08T18:55:46.311Z,91.30
2018-03-08T18:57:48.779Z,91.51
2018-03-08T18:59:51.367Z,91.51
2018-03-08T19:01:53.824Z,90.89
2018-03-08T19:03:56.352Z,91.61
2018-03-08T19:05:58.797Z,92.22
2018-03-08T19:08:01.368Z,92.21
2018-03-08T19:10:03.846Z,92.10
2018-03-08T19:12:06.451Z,92.11
2018-03-08T19:14:08.908Z,92.43
2018-03-08T19:16:11.446Z,92.44
2018-03-08T19:18:14.043Z,92.85
2018-03-08T19:20:16.548Z,93.11
2018-03-08T19:22:19.240Z,93.43
2018-03-08T19:24:21.704Z,93.56
2018-03-08T19:26:24.222Z,93.45
2018-03-08T19:28:26.775Z,94.11
2018-03-08T19:30:29.281Z,94.33
2018-03-08T19:32:31.879Z,94.44
2018-03-08T19:34:34.383Z,94.53
2018-03-08T19:36:37.001Z,94.37
2018-03-08T19:38:39.592Z,94.76
2018-03-08T19:40:42.098Z,94.62
2018-03-08T19:42:44.603Z,94.94
2018-03-08T19:44:47.112Z,95.35
2018-03-08T19:46:49.655Z,95.34
2018-03-08T19:48:52.098Z,95.55
2018-03-08T19:50:54.747Z,94.96
2018-03-08T19:52:57.254Z,94.86
2018-03-08T19:54:59.837Z,95.23
2018-03-08T19:57:02.352Z,95.07
2018-03-08T19:59:04.927Z,94.90
2018-03-08T20:01:07.530Z,94.87
2018-03-08T20:03:10.095Z,93.95
2018-03-08T20:05:12.603Z,93.30
2018-03-08T20:07:15.209Z,93.23
2018-03-08T20:09:17.820Z,92.92
2018-03-08T20:11:20.394Z,92.09
2018-03-08T20:13:23.089Z,89.79
2018-03-08T20:15:25.588Z,90.35
2018-03-08T20:17:28.069Z,91.17
2018-03-08T20:19:30.974Z,90.69
2018-03-08T20:21:33.479Z,90.86
2018-03-08T20:23:35.954Z,90.78
2018-03-08T20:25:38.464Z,89.90
2018-03-08T20:27:40.907Z,89.12
2018-03-08T20:29:43.388Z,88.84
2018-03-08T20:31:45.869Z,88.57
2018-03-08T20:33:48.335Z,88.87
2018-03-08T20:35:50.830Z,89.31
2018-03-08T20:37:53.318Z,89.32
2018-03-08T20:39:55.763Z,89.53
2018-03-08T20:41:58.283Z,89.61
2018-03-08T20:44:00.748Z,89.65
2018-03-08T20:46:03.307Z,89.43
2018-03-08T20:48:05.995Z,88.95
2018-03-08T20:50:08.450Z,89.42
2018-03-08T20:52:10.983Z,89.95
2018-03-08T20:54:13.520Z,89.29
2018-03-08T20:56:16.093Z,89.10
2018-03-08T20:58:18.549Z,88.89
2018-03-08T21:00:21.154Z,88.44
2018-03-08T21:02:23.762Z,88.54
2018-03-08T21:04:26.344Z,89.20
2018-03-08T21:06:28.833Z,89.08
2018-03-08T21:08:31.435Z,88.51
2018-03-08T21:10:33.962Z,87.27
2018-03-08T21:12:36.517Z,87.53
2018-03-08T21:14:39.028Z,88.06
2018-03-08T21:16:41.603Z,87.41
2018-03-08T21:18:44.104Z,87.45
2018-03-08T21:20:46.526Z,86.48
2018-03-08T21:22:49.188Z,87.14
2018-03-08T21:24:51.654Z,86.81
2018-03-08T21:26:54.097Z,86.55
2018-03-08T21:28:56.584Z,86.11
2018-03-08T21:30:59.040Z,86.07
2018-03-08T21:33:01.655Z,86.37
2018-03-08T21:35:04.107Z,87.17
2018-03-08T21:37:06.569Z,87.38
2018-03-08T21:39:09.959Z,87.61
2018-03-08T21:41:12.454Z,87.57
2018-03-08T21:43:14.948Z,87.84
2018-03-08T21:45:17.420Z,87.47
2018-03-08T21:47:19.896Z,87.99
2018-03-08T21:49:22.399Z,88.51
2018-03-08T21:51:24.909Z,88.31
2018-03-08T21:53:27.500Z,88.13
2018-03-08T21:55:29.991Z,88.29
2018-03-08T21:57:32.530Z,87.96
2018-03-08T21:59:35.088Z,88.10
2018-03-08T22:01:37.516Z,88.48
2018-03-08T22:03:40.010Z,88.67
2018-03-08T22:05:42.468Z,88.55
2018-03-08T22:07:44.965Z,88.51
2018-03-08T22:09:47.465Z,88.68
2018-03-08T22:11:49.986Z,88.44
2018-03-08T22:13:52.564Z,88.76
2018-03-08T22:15:55.036Z,88.92
2018-03-08T22:17:57.502Z,89.05
2018-03-08T22:19:59.996Z,88.99
2018-03-08T22:22:02.455Z,88.75
2018-03-08T22:24:04.955Z,89.09
2018-03-08T22:26:07.466Z,89.28
2018-03-08T22:28:09.925Z,89.51
2018-03-08T22:30:12.485Z,89.02
2018-03-08T22:32:14.974Z,89.20
2018-03-08T22:34:17.397Z,89.84
2018-03-08T22:36:19.875Z,89.60
2018-03-08T22:38:22.441Z,89.09
2018-03-08T22:40:24.926Z,89.55
2018-03-08T22:42:27.451Z,89.58
2018-03-08T22:44:29.977Z,89.22
2018-03-08T22:46:32.529Z,88.81
2018-03-08T22:48:34.970Z,88.80
2018-03-08T22:50:37.517Z,88.80
2018-03-08T22:52:40.010Z,88.55
2018-03-08T22:54:42.482Z,88.61
2018-03-08T22:56:45.003Z,88.45
2018-03-08T22:58:47.470Z,88.53
2018-03-08T23:00:49.958Z,87.80
2018-03-08T23:05:29.247Z,87.55
2018-03-08T23:07:31.710Z,87.36
2018-03-08T23:09:34.180Z,87.10
2018-03-08T23:11:36.689Z,87.50
2018-03-08T23:13:39.161Z,86.63
2018-03-08T23:15:41.694Z,86.74
2018-03-08T23:17:44.139Z,86.29
2018-03-08T23:19:46.697Z,85.32
2018-03-08T23:21:49.221Z,84.77
2018-03-08T23:23:51.719Z,84.69
2018-03-08T23:25:54.287Z,85.07
2018-03-08T23:27:56.733Z,84.84
2018-03-08T23:29:59.167Z,85.00
2018-03-08T23:32:01.652Z,85.09
2018-03-08T23:34:04.151Z,85.38
2018-03-08T23:36:06.620Z,85.68
2018-03-08T23:38:09.082Z,85.74
2018-03-08T23:40:11.555Z,85.84
2018-03-08T23:42:14.121Z,85.35
2018-03-08T23:44:16.551Z,85.43
2018-03-08T23:46:19.021Z,85.90
2018-03-08T23:48:21.545Z,86.00
2018-03-08T23:50:24.018Z,86.46
2018-03-08T23:52:26.511Z,86.62
2018-03-08T23:54:28.956Z,86.51
2018-03-08T23:56:31.481Z,86.58
2018-03-08T23:58:33.966Z,87.03
